Terminal Aerodrome Forecast
Issued by NWS Portland, OR

Home | Current Version | Previous Version | Text Only | Print | Product List | Glossary On
Versions: 1 2 3 4 5 6 7 8 9 10 11 12 13 14 15 16 17 18 19 20 21 22 23 24 25 26 27 28 29 30
000
FTUS46 KPQR 160225 AAA
TAFAST
TAF AMD
KAST 160225Z 1602/1624 22010KT P6SM SCT010 BKN250
      TEMPO 1604/1607 BKN010
     FM160700 20008KT 6SM BR OVC011
     FM161200 17003KT P6SM OVC015
     FM161800 19006KT P6SM BKN020=

USA.gov is the U.S. government's official web portal to all federal, state and local government web resources and services.